createdAt,value
2022-10-22T00:01:34.780Z,54.93
2022-10-22T00:04:02.391Z,55.00
2022-10-22T00:06:29.685Z,54.76
2022-10-22T00:08:57.270Z,54.67
2022-10-22T00:11:24.918Z,55.52
2022-10-22T00:13:52.714Z,54.89
2022-10-22T00:16:20.061Z,54.28
2022-10-22T00:18:47.623Z,55.35
2022-10-22T00:21:14.926Z,55.04
2022-10-22T00:23:42.778Z,55.14
2022-10-22T00:26:10.516Z,55.16
2022-10-22T00:28:37.889Z,55.23
2022-10-22T00:31:05.527Z,54.67
2022-10-22T00:33:33.177Z,54.55
2022-10-22T00:36:00.519Z,54.63
2022-10-22T00:38:27.865Z,54.87
2022-10-22T00:40:55.776Z,55.03
2022-10-22T00:43:23.125Z,54.59
2022-10-22T00:45:50.495Z,54.44
2022-10-22T00:48:19.250Z,53.94
2022-10-22T00:51:00.358Z,56.17
2022-10-22T00:53:43.104Z,55.04
2022-10-22T00:56:10.447Z,54.90
2022-10-22T00:58:41.596Z,54.63
2022-10-22T01:01:09.719Z,54.82
2022-10-22T01:03:37.070Z,54.25
2022-10-22T01:06:05.401Z,56.09
2022-10-22T01:08:43.546Z,55.31
2022-10-22T01:11:32.865Z,55.00
2022-10-22T01:14:15.593Z,54.90
2022-10-22T01:16:59.860Z,56.25
2022-10-22T01:19:58.710Z,56.17
2022-10-22T01:22:39.321Z,55.62
2022-10-22T01:25:43.542Z,55.66
2022-10-22T01:28:37.454Z,55.52
2022-10-22T01:31:04.809Z,55.45
2022-10-22T01:33:32.401Z,55.62
2022-10-22T01:36:00.142Z,55.26
2022-10-22T01:38:27.579Z,55.51
2022-10-22T01:40:55.162Z,55.52
2022-10-22T01:43:22.520Z,55.35
2022-10-22T01:45:56.560Z,55.16
2022-10-22T01:48:44.460Z,55.05
2022-10-22T01:51:24.770Z,54.81
2022-10-22T01:54:00.734Z,54.92
2022-10-22T01:56:43.214Z,54.89
2022-10-22T01:59:33.526Z,54.45
2022-10-22T02:02:40.096Z,54.52
2022-10-22T02:05:16.943Z,55.17
2022-10-22T02:07:45.868Z,55.20
2022-10-22T02:10:13.356Z,54.76
2022-10-22T02:12:41.238Z,55.09
2022-10-22T02:15:09.236Z,54.74
2022-10-22T02:17:37.217Z,54.34
2022-10-22T02:20:16.663Z,53.98
2022-10-22T02:22:44.287Z,54.15
2022-10-22T02:25:11.615Z,53.89
2022-10-22T02:27:43.706Z,54.37
2022-10-22T02:33:00.351Z,53.90
2022-10-22T02:35:28.020Z,54.45
2022-10-22T02:37:55.469Z,54.15
2022-10-22T02:40:22.989Z,54.14
2022-10-22T02:42:50.681Z,54.16
2022-10-22T02:45:18.581Z,54.35
2022-10-22T02:47:45.904Z,54.48
2022-10-22T02:50:13.548Z,54.52
2022-10-22T02:52:41.167Z,54.68
2022-10-22T02:55:08.875Z,54.85
2022-10-22T02:57:36.545Z,54.77
2022-10-22T03:00:05.921Z,54.88
2022-10-22T03:02:33.225Z,55.17
2022-10-22T03:05:00.840Z,55.16
2022-10-22T03:07:28.161Z,55.93
2022-10-22T03:09:55.480Z,55.64
2022-10-22T03:12:23.123Z,55.55
2022-10-22T03:14:50.545Z,55.98
2022-10-22T03:17:17.850Z,55.90
2022-10-22T03:19:45.443Z,56.67
2022-10-22T03:22:29.386Z,56.96
2022-10-22T03:24:59.454Z,56.91
2022-10-22T03:27:28.297Z,56.87
2022-10-22T03:29:55.657Z,57.31
2022-10-22T03:32:23.234Z,57.06
2022-10-22T03:34:50.610Z,57.64
2022-10-22T03:37:17.950Z,57.46
2022-10-22T03:39:45.555Z,57.70
2022-10-22T03:42:13.601Z,57.73
2022-10-22T03:44:41.447Z,57.54
2022-10-22T03:47:09.229Z,57.52
2022-10-22T03:49:36.589Z,59.07
2022-10-22T03:52:11.381Z,57.65
2022-10-22T03:57:11.303Z,58.48
2022-10-22T03:59:42.900Z,58.58
2022-10-22T04:02:10.705Z,58.09
2022-10-22T04:04:38.333Z,58.22
2022-10-22T04:07:06.496Z,58.39
2022-10-22T04:09:34.129Z,58.88
2022-10-22T04:12:01.813Z,58.22
2022-10-22T04:14:29.130Z,58.68
2022-10-22T04:16:56.500Z,58.49
2022-10-22T04:19:24.078Z,58.75
2022-10-22T04:21:51.461Z,58.90
2022-10-22T04:24:18.774Z,57.92
2022-10-22T04:26:46.342Z,59.25
2022-10-22T04:29:16.124Z,59.13
2022-10-22T04:31:44.248Z,58.88
2022-10-22T04:34:12.156Z,58.75
2022-10-22T04:36:40.485Z,58.82
2022-10-22T04:39:07.822Z,58.72
2022-10-22T04:41:36.770Z,59.56
2022-10-22T04:44:04.901Z,59.11
2022-10-22T04:46:33.673Z,58.62
2022-10-22T04:49:03.368Z,58.26
2022-10-22T04:51:31.907Z,59.31
2022-10-22T04:53:59.327Z,58.96
2022-10-22T04:56:30.306Z,58.95
2022-10-22T04:59:02.480Z,58.83
2022-10-22T05:01:37.062Z,59.69
2022-10-22T05:04:08.119Z,59.90
2022-10-22T05:06:36.139Z,60.24
2022-10-22T05:09:21.886Z,59.42
2022-10-22T05:11:50.590Z,59.60
2022-10-22T05:14:19.880Z,59.99
2022-10-22T05:16:48.602Z,60.37
2022-10-22T05:19:24.567Z,59.91
2022-10-22T05:21:52.772Z,59.20
2022-10-22T05:24:20.601Z,60.06
2022-10-22T05:26:51.789Z,59.54
2022-10-22T05:29:19.151Z,58.83
2022-10-22T05:31:46.816Z,59.37
2022-10-22T05:34:14.345Z,58.72
2022-10-22T05:36:41.714Z,59.16
2022-10-22T05:39:11.660Z,59.38
2022-10-22T05:41:39.028Z,59.29
2022-10-22T05:44:06.350Z,59.24
2022-10-22T05:46:35.316Z,59.17
2022-10-22T05:49:04.232Z,60.26
2022-10-22T05:51:32.877Z,59.40
2022-10-22T05:54:01.965Z,59.75
2022-10-22T05:56:30.094Z,59.32
2022-10-22T05:58:57.465Z,59.38
2022-10-22T06:01:27.443Z,58.65
2022-10-22T06:03:59.346Z,57.86
2022-10-22T06:06:34.217Z,58.96
2022-10-22T06:09:06.397Z,58.34
2022-10-22T06:11:35.203Z,59.45
2022-10-22T06:14:03.802Z,59.13
2022-10-22T06:16:31.176Z,58.93
2022-10-22T06:18:59.025Z,58.71
2022-10-22T06:21:26.617Z,59.88
2022-10-22T06:23:56.219Z,58.82
2022-10-22T06:26:23.587Z,58.58
2022-10-22T06:28:51.203Z,59.11
2022-10-22T06:31:18.926Z,58.62
2022-10-22T06:33:46.238Z,58.10
2022-10-22T06:36:16.147Z,57.97
2022-10-22T06:38:43.512Z,57.59
2022-10-22T06:41:12.404Z,57.04
2022-10-22T06:43:40.550Z,57.20
2022-10-22T06:46:09.851Z,56.65
2022-10-22T06:48:38.037Z,56.32
2022-10-22T06:51:09.816Z,55.78
2022-10-22T06:53:37.391Z,55.39
2022-10-22T06:56:09.131Z,55.77
2022-10-22T06:58:36.740Z,54.85
2022-10-22T07:01:08.238Z,54.54
2022-10-22T07:03:35.630Z,53.77
2022-10-22T07:06:04.236Z,52.26
2022-10-22T07:08:31.652Z,51.98
2022-10-22T07:11:08.565Z,51.35
2022-10-22T07:13:36.286Z,50.87
2022-10-22T07:16:04.389Z,52.21
2022-10-22T07:18:31.841Z,51.56
2022-10-22T07:20:59.684Z,51.05
2022-10-22T07:23:27.338Z,50.00
2022-10-22T07:28:27.966Z,48.93
2022-10-22T07:30:55.309Z,49.35
2022-10-22T07:33:22.628Z,50.03
2022-10-22T07:35:50.209Z,50.73
2022-10-22T07:38:17.501Z,50.84
2022-10-22T07:40:44.813Z,51.05
2022-10-22T07:43:12.382Z,49.54
2022-10-22T07:45:41.096Z,50.75
2022-10-22T07:48:08.396Z,52.46
2022-10-22T07:50:36.431Z,52.53
2022-10-22T07:53:03.781Z,52.09
2022-10-22T07:55:31.294Z,51.82
2022-10-22T07:57:58.839Z,51.17
2022-10-22T08:00:26.244Z,51.33
2022-10-22T08:02:53.874Z,50.60
2022-10-22T08:05:21.177Z,52.62
2022-10-22T08:07:48.475Z,52.92
2022-10-22T08:10:16.262Z,50.79
2022-10-22T08:12:44.114Z,50.54
2022-10-22T08:15:11.562Z,50.55
2022-10-22T08:17:39.584Z,50.17
2022-10-22T08:20:07.855Z,50.01
2022-10-22T08:22:35.247Z,48.58
2022-10-22T08:25:02.834Z,48.37
2022-10-22T08:27:30.154Z,49.34
2022-10-22T08:29:57.514Z,47.52
2022-10-22T08:32:25.155Z,46.72
2022-10-22T08:34:52.529Z,45.65
2022-10-22T08:37:19.865Z,44.43
2022-10-22T08:39:47.452Z,43.66
2022-10-22T08:42:37.875Z,44.88
2022-10-22T08:45:14.724Z,43.96
2022-10-22T08:48:02.064Z,43.79
2022-10-22T08:50:38.095Z,43.46
2022-10-22T08:53:15.696Z,42.93
2022-10-22T08:55:43.548Z,43.19
2022-10-22T08:58:30.121Z,42.88
2022-10-22T09:01:14.461Z,42.46
2022-10-22T09:03:44.252Z,44.30
2022-10-22T09:06:22.867Z,45.53
2022-10-22T09:08:50.367Z,44.39
2022-10-22T09:11:28.498Z,43.35
2022-10-22T09:13:55.952Z,44.22
2022-10-22T09:16:33.623Z,46.27
2022-10-22T09:19:03.572Z,46.05
2022-10-22T09:21:56.747Z,45.73
2022-10-22T09:24:40.240Z,45.03
2022-10-22T09:27:14.243Z,43.78
2022-10-22T09:29:41.582Z,42.14
2022-10-22T09:32:09.171Z,42.47
2022-10-22T09:34:36.794Z,42.56
2022-10-22T09:37:06.700Z,42.72
2022-10-22T09:39:41.854Z,43.18
2022-10-22T09:42:09.377Z,43.25
2022-10-22T09:44:42.709Z,43.36
2022-10-22T09:47:42.509Z,43.28
2022-10-22T09:50:26.705Z,43.00
2022-10-22T09:53:19.936Z,43.52
2022-10-22T09:55:52.767Z,43.11
2022-10-22T09:58:20.229Z,43.08
2022-10-22T10:01:00.167Z,45.64
2022-10-22T10:03:29.598Z,45.58
2022-10-22T10:06:04.735Z,44.09
2022-10-22T10:08:33.790Z,43.87
2022-10-22T10:11:05.753Z,44.92
2022-10-22T10:13:46.540Z,45.19
2022-10-22T10:16:27.434Z,45.09
2022-10-22T10:19:13.444Z,44.64
2022-10-22T10:22:00.720Z,45.09
2022-10-22T10:24:43.107Z,45.69
2022-10-22T10:27:20.752Z,45.66
2022-10-22T10:29:57.017Z,48.23
2022-10-22T10:32:27.968Z,46.56
2022-10-22T10:35:07.235Z,45.84
2022-10-22T10:37:47.396Z,45.63
2022-10-22T10:40:28.894Z,45.32
2022-10-22T10:43:19.797Z,44.25
2022-10-22T10:45:59.350Z,44.13
2022-10-22T10:48:33.013Z,44.23
2022-10-22T10:51:20.535Z,44.20
2022-10-22T10:54:20.149Z,44.43
2022-10-22T10:56:49.970Z,44.06
2022-10-22T10:59:28.280Z,43.88
2022-10-22T11:01:59.585Z,43.44
2022-10-22T11:04:59.081Z,43.56
2022-10-22T11:07:52.121Z,43.66
2022-10-22T11:10:28.179Z,44.04
2022-10-22T11:13:20.972Z,44.01
2022-10-22T11:16:11.891Z,43.94
2022-10-22T11:19:04.360Z,44.21
2022-10-22T11:21:39.782Z,44.19
2022-10-22T11:24:24.840Z,44.42
2022-10-22T11:26:58.371Z,44.60
2022-10-22T11:29:29.504Z,44.17
2022-10-22T11:32:00.032Z,44.00
2022-10-22T11:34:57.846Z,43.65
2022-10-22T11:37:27.280Z,43.65
2022-10-22T11:39:55.513Z,45.60
2022-10-22T11:42:30.081Z,44.85
2022-10-22T11:45:02.005Z,44.07
2022-10-22T11:47:33.471Z,45.03
2022-10-22T11:50:22.937Z,45.24
2022-10-22T11:52:55.521Z,45.62
2022-10-22T11:55:45.888Z,44.47
2022-10-22T11:58:28.678Z,44.55
2022-10-22T12:01:02.128Z,43.85
2022-10-22T12:03:32.628Z,44.16
2022-10-22T12:06:12.804Z,44.16
2022-10-22T12:08:49.929Z,43.76
2022-10-22T12:11:20.721Z,44.59
2022-10-22T12:14:20.828Z,44.87
2022-10-22T12:16:58.467Z,44.61
2022-10-22T12:19:42.437Z,44.55
2022-10-22T12:22:21.542Z,46.52
2022-10-22T12:24:51.361Z,47.04
2022-10-22T12:27:22.580Z,46.70
2022-10-22T12:29:55.087Z,47.67
2022-10-22T12:32:22.491Z,49.46
2022-10-22T12:34:52.731Z,47.87
2022-10-22T12:37:20.646Z,48.58
2022-10-22T12:39:47.948Z,47.81
2022-10-22T12:42:16.817Z,47.95
2022-10-22T12:44:44.851Z,48.84
2022-10-22T12:47:16.857Z,48.80
2022-10-22T12:49:46.924Z,50.97
2022-10-22T12:52:17.585Z,52.17
2022-10-22T12:54:49.334Z,50.44
2022-10-22T12:57:17.714Z,50.94
2022-10-22T12:59:49.658Z,51.53
2022-10-22T13:02:22.600Z,54.10
2022-10-22T13:05:09.101Z,52.31
2022-10-22T13:07:39.267Z,51.85
2022-10-22T13:10:23.354Z,50.74
2022-10-22T13:12:55.321Z,51.50
2022-10-22T13:15:35.935Z,51.80
2022-10-22T13:18:16.849Z,53.25
2022-10-22T13:20:54.997Z,51.32
2022-10-22T13:23:24.385Z,52.09
2022-10-22T13:25:59.453Z,51.01
2022-10-22T13:28:26.760Z,50.49
2022-10-22T13:30:56.697Z,50.27
2022-10-22T13:33:26.413Z,50.90
2022-10-22T13:35:54.721Z,51.07
2022-10-22T13:38:23.718Z,53.05
2022-10-22T13:40:51.205Z,54.84
2022-10-22T13:43:18.829Z,55.81
2022-10-22T13:45:46.869Z,54.23
2022-10-22T13:48:15.708Z,54.89
2022-10-22T13:50:43.741Z,57.16
2022-10-22T13:53:21.296Z,58.98
2022-10-22T13:55:50.179Z,61.41
2022-10-22T13:58:19.086Z,57.94
2022-10-22T14:00:48.528Z,62.47
2022-10-22T14:03:17.653Z,62.11
2022-10-22T14:05:46.657Z,63.06
2022-10-22T14:08:18.399Z,62.04
2022-10-22T14:10:46.083Z,64.12
2022-10-22T14:13:14.394Z,63.84
2022-10-22T14:15:42.161Z,64.43
2022-10-22T14:18:11.347Z,63.97
2022-10-22T14:20:39.574Z,62.02
2022-10-22T14:23:18.973Z,63.16
2022-10-22T14:25:46.749Z,61.43
2022-10-22T14:28:14.263Z,64.74
2022-10-22T14:30:41.570Z,64.71
2022-10-22T14:33:32.171Z,66.07
2022-10-22T14:36:00.602Z,63.16
2022-10-22T14:38:28.451Z,63.50
2022-10-22T14:40:55.908Z,62.78
2022-10-22T14:43:24.584Z,61.77
2022-10-22T14:45:52.191Z,59.73
2022-10-22T14:50:52.242Z,63.74
2022-10-22T14:53:19.601Z,63.44
2022-10-22T14:55:47.501Z,62.15
2022-10-22T14:58:16.184Z,64.15
2022-10-22T15:00:43.902Z,62.88
2022-10-22T15:03:11.612Z,64.53
2022-10-22T15:05:44.371Z,63.31
2022-10-22T15:08:12.999Z,66.08
2022-10-22T15:10:40.756Z,65.03
2022-10-22T15:13:08.136Z,65.50
2022-10-22T15:15:39.635Z,67.24
2022-10-22T15:18:07.683Z,68.60
2022-10-22T15:20:35.034Z,67.80
2022-10-22T15:23:02.660Z,69.00
2022-10-22T15:25:30.518Z,68.12
2022-10-22T15:28:00.802Z,68.57
2022-10-22T15:30:35.120Z,68.07
2022-10-22T15:33:02.473Z,67.46
2022-10-22T15:35:29.785Z,66.80
2022-10-22T15:37:57.390Z,70.73
2022-10-22T15:40:25.035Z,70.82
2022-10-22T15:42:52.374Z,72.85
2022-10-22T15:45:21.372Z,70.67
2022-10-22T15:47:49.195Z,72.41
2022-10-22T15:50:17.124Z,74.87
2022-10-22T15:52:44.749Z,75.15
2022-10-22T15:57:40.606Z,76.95
2022-10-22T16:00:09.042Z,78.24
2022-10-22T16:02:39.626Z,78.31
2022-10-22T16:05:07.691Z,80.22
2022-10-22T16:07:35.008Z,81.33
2022-10-22T16:10:02.302Z,82.25
2022-10-22T16:12:29.885Z,81.99
2022-10-22T16:14:57.191Z,82.03
2022-10-22T16:17:24.637Z,82.87
2022-10-22T16:19:52.207Z,83.82
2022-10-22T16:22:19.513Z,84.36
2022-10-22T16:24:46.892Z,83.68
2022-10-22T16:27:14.473Z,81.95
2022-10-22T16:29:42.042Z,83.64
2022-10-22T16:32:10.383Z,83.86
2022-10-22T16:34:37.956Z,85.83
2022-10-22T16:37:10.149Z,84.46
2022-10-22T16:39:38.055Z,85.66
2022-10-22T16:42:05.605Z,84.79
2022-10-22T16:44:32.934Z,87.42
2022-10-22T16:47:01.017Z,87.04
2022-10-22T16:49:28.385Z,84.85
2022-10-22T16:51:55.712Z,86.63
2022-10-22T16:54:23.278Z,84.02
2022-10-22T16:56:50.604Z,85.82
2022-10-22T16:59:17.914Z,86.17
2022-10-22T17:01:45.539Z,83.21
2022-10-22T17:04:12.915Z,83.69
2022-10-22T17:06:40.220Z,84.72
2022-10-22T17:09:07.931Z,85.81
2022-10-22T17:11:37.021Z,83.12
2022-10-22T17:14:06.590Z,84.01
2022-10-22T17:16:34.222Z,80.51
2022-10-22T17:19:02.766Z,81.33
2022-10-22T17:21:30.094Z,80.20
2022-10-22T17:23:57.697Z,78.85
2022-10-22T17:26:26.842Z,79.96
2022-10-22T17:28:54.631Z,81.67
2022-10-22T17:31:26.384Z,82.83
2022-10-22T17:33:54.449Z,81.91
2022-10-22T17:36:22.747Z,83.49
2022-10-22T17:38:52.337Z,80.57
2022-10-22T17:41:24.323Z,79.91
2022-10-22T17:43:52.000Z,80.00
2022-10-22T17:46:24.018Z,77.87
2022-10-22T17:48:52.225Z,77.75
2022-10-22T17:51:19.687Z,77.76
2022-10-22T17:53:47.210Z,78.62
2022-10-22T17:56:15.569Z,76.10
2022-10-22T17:58:42.955Z,77.80
2022-10-22T18:01:37.595Z,77.27
2022-10-22T18:04:07.836Z,78.58
2022-10-22T18:06:35.314Z,82.17
2022-10-22T18:09:06.647Z,81.96
2022-10-22T18:11:34.426Z,79.43
2022-10-22T18:14:01.804Z,80.35
2022-10-22T18:16:29.414Z,78.36
2022-10-22T18:18:57.059Z,79.64
2022-10-22T18:21:25.686Z,78.77
2022-10-22T18:23:53.040Z,78.46
2022-10-22T18:26:24.286Z,79.08
2022-10-22T18:28:54.796Z,79.80
2022-10-22T18:31:23.421Z,78.98
2022-10-22T18:33:50.952Z,78.22
2022-10-22T18:36:20.140Z,78.79
2022-10-22T18:38:51.262Z,78.55
2022-10-22T18:41:18.635Z,78.62
2022-10-22T18:43:52.797Z,78.58
2022-10-22T18:46:20.479Z,78.15
2022-10-22T18:48:47.817Z,78.27
2022-10-22T18:51:15.271Z,80.83
2022-10-22T18:53:53.574Z,79.28
2022-10-22T18:56:30.238Z,77.35
2022-10-22T18:58:57.834Z,77.41
2022-10-22T19:01:25.777Z,78.67
2022-10-22T19:03:53.189Z,77.79
2022-10-22T19:06:37.145Z,78.98
2022-10-22T19:09:05.391Z,79.06
2022-10-22T19:11:33.014Z,78.20
2022-10-22T19:14:00.362Z,83.57
2022-10-22T19:16:28.512Z,81.03
2022-10-22T19:19:01.400Z,80.81
2022-10-22T19:21:28.779Z,78.93
2022-10-22T19:23:57.200Z,78.52
2022-10-22T19:26:26.344Z,81.71
2022-10-22T19:28:54.376Z,79.73
2022-10-22T19:31:22.613Z,78.99
2022-10-22T19:33:50.804Z,77.21
2022-10-22T19:36:18.470Z,76.77
2022-10-22T19:38:47.419Z,76.29
2022-10-22T19:41:16.807Z,76.46
2022-10-22T19:43:44.584Z,75.46
2022-10-22T19:46:12.216Z,76.28
2022-10-22T19:48:39.672Z,74.28
2022-10-22T19:51:09.390Z,76.01
2022-10-22T19:53:38.012Z,76.96
2022-10-22T19:56:06.931Z,75.32
2022-10-22T19:58:34.669Z,75.07
2022-10-22T20:01:09.997Z,75.92
2022-10-22T20:03:37.967Z,75.03
2022-10-22T20:06:06.147Z,74.83
2022-10-22T20:08:36.019Z,73.76
2022-10-22T20:11:11.355Z,73.55
2022-10-22T20:16:07.365Z,75.99
2022-10-22T20:18:34.769Z,77.23
2022-10-22T20:21:06.116Z,79.29
2022-10-22T20:23:33.722Z,81.36
2022-10-22T20:26:01.095Z,76.41
2022-10-22T20:28:28.516Z,78.70
2022-10-22T20:30:56.117Z,77.02
2022-10-22T20:33:23.532Z,75.79
2022-10-22T20:36:13.451Z,74.96
2022-10-22T20:38:41.131Z,74.07
2022-10-22T20:41:10.727Z,74.20
2022-10-22T20:43:38.041Z,74.08
2022-10-22T20:46:05.724Z,73.38
2022-10-22T20:48:33.040Z,74.01
2022-10-22T20:51:00.609Z,73.51
2022-10-22T20:53:28.445Z,73.54
2022-10-22T20:55:57.358Z,73.01
2022-10-22T20:58:26.836Z,74.23
2022-10-22T21:00:54.818Z,73.08
2022-10-22T21:03:22.406Z,73.11
2022-10-22T21:05:49.745Z,72.38
2022-10-22T21:08:17.758Z,72.28
2022-10-22T21:10:46.462Z,72.50
2022-10-22T21:13:13.893Z,72.87
2022-10-22T21:15:41.624Z,72.34
2022-10-22T21:18:08.980Z,72.20
2022-10-22T21:20:36.377Z,71.84
2022-10-22T21:23:03.987Z,71.99
2022-10-22T21:25:31.478Z,71.36
2022-10-22T21:27:59.812Z,70.66
2022-10-22T21:30:27.405Z,71.89
2022-10-22T21:32:56.781Z,71.42
2022-10-22T21:35:24.758Z,71.04
2022-10-22T21:37:52.346Z,71.30
2022-10-22T21:40:19.732Z,72.38
2022-10-22T21:42:47.231Z,72.43
2022-10-22T21:45:17.519Z,71.45
2022-10-22T21:47:47.267Z,71.57
2022-10-22T21:50:14.952Z,71.98
2022-10-22T21:52:42.309Z,71.68
2022-10-22T21:55:09.962Z,72.11
2022-10-22T21:57:37.558Z,72.62
2022-10-22T22:00:06.844Z,73.09
2022-10-22T22:02:34.198Z,72.76
2022-10-22T22:05:01.808Z,75.66
2022-10-22T22:07:29.106Z,74.31
2022-10-22T22:09:56.440Z,76.02
2022-10-22T22:12:24.088Z,74.99
2022-10-22T22:14:51.412Z,74.39
2022-10-22T22:17:18.723Z,76.83
2022-10-22T22:19:46.308Z,74.52
2022-10-22T22:22:13.693Z,77.48
2022-10-22T22:24:41.021Z,77.94
2022-10-22T22:27:08.644Z,80.06
2022-10-22T22:29:36.007Z,81.36
2022-10-22T22:32:03.348Z,79.08
2022-10-22T22:34:30.997Z,79.94
2022-10-22T22:36:58.329Z,81.38
2022-10-22T22:39:25.719Z,85.53
2022-10-22T22:41:53.291Z,89.31
2022-10-22T22:44:20.607Z,93.01
2022-10-22T22:46:47.927Z,90.35
2022-10-22T22:49:15.570Z,89.45
2022-10-22T22:51:43.525Z,90.47
2022-10-22T22:54:11.112Z,90.96
2022-10-22T22:56:38.748Z,94.34
2022-10-22T22:59:06.198Z,93.40
2022-10-22T23:01:34.956Z,93.12
2022-10-22T23:04:04.918Z,92.05
2022-10-22T23:06:34.049Z,90.95
2022-10-22T23:09:01.535Z,92.75
2022-10-22T23:11:29.236Z,92.97
2022-10-22T23:14:00.767Z,91.10
2022-10-22T23:16:29.713Z,89.75
2022-10-22T23:18:58.799Z,91.96
2022-10-22T23:21:33.322Z,90.47
2022-10-22T23:24:02.429Z,90.31
2022-10-22T23:26:31.932Z,89.31
2022-10-22T23:29:03.566Z,88.65
2022-10-22T23:31:31.156Z,93.20
2022-10-22T23:33:58.638Z,90.66
2022-10-22T23:36:26.021Z,90.70
2022-10-22T23:38:54.292Z,90.85
2022-10-22T23:41:21.669Z,88.68
2022-10-22T23:43:50.001Z,88.02
2022-10-22T23:46:17.608Z,87.83
2022-10-22T23:48:45.418Z,88.86
2022-10-22T23:51:14.043Z,86.97
2022-10-22T23:53:41.838Z,90.66
2022-10-22T23:56:11.910Z,87.18
2022-10-22T23:58:39.367Z,87.21
